sensor_id;sensor_type;location;lat;lon;timestamp;P1;durP1;ratioP1;P2;durP2;ratioP2
58214;SDS011;44011;52.218;1.480;2023-07-31T00:02:16;14.55;;;5.78;;
58214;SDS011;44011;52.218;1.480;2023-07-31T00:04:41;19.05;;;6.18;;
58214;SDS011;44011;52.218;1.480;2023-07-31T00:07:06;14.05;;;5.78;;
58214;SDS011;44011;52.218;1.480;2023-07-31T00:09:32;12.68;;;5.55;;
58214;SDS011;44011;52.218;1.480;2023-07-31T00:11:57;14.50;;;5.88;;
58214;SDS011;44011;52.218;1.480;2023-07-31T00:14:22;18.77;;;6.60;;
58214;SDS011;44011;52.218;1.480;2023-07-31T00:16:48;17.13;;;6.17;;
58214;SDS011;44011;52.218;1.480;2023-07-31T00:19:13;15.67;;;5.97;;
58214;SDS011;44011;52.218;1.480;2023-07-31T00:21:38;16.20;;;6.40;;
58214;SDS011;44011;52.218;1.480;2023-07-31T00:24:03;14.40;;;5.37;;
58214;SDS011;44011;52.218;1.480;2023-07-31T00:26:29;20.23;;;6.35;;
58214;SDS011;44011;52.218;1.480;2023-07-31T00:28:54;11.93;;;4.82;;
58214;SDS011;44011;52.218;1.480;2023-07-31T00:31:19;22.00;;;5.43;;
58214;SDS011;44011;52.218;1.480;2023-07-31T00:33:44;18.30;;;5.43;;
58214;SDS011;44011;52.218;1.480;2023-07-31T00:36:09;14.67;;;5.53;;
58214;SDS011;44011;52.218;1.480;2023-07-31T00:38:34;15.03;;;5.70;;
58214;SDS011;44011;52.218;1.480;2023-07-31T00:41:00;18.27;;;5.57;;
58214;SDS011;44011;52.218;1.480;2023-07-31T00:43:25;19.73;;;5.30;;
58214;SDS011;44011;52.218;1.480;2023-07-31T00:45:50;22.55;;;5.68;;
58214;SDS011;44011;52.218;1.480;2023-07-31T00:48:15;16.77;;;5.77;;
58214;SDS011;44011;52.218;1.480;2023-07-31T00:50:40;17.83;;;5.63;;
58214;SDS011;44011;52.218;1.480;2023-07-31T00:53:06;15.90;;;5.97;;
58214;SDS011;44011;52.218;1.480;2023-07-31T00:55:31;13.67;;;5.03;;
58214;SDS011;44011;52.218;1.480;2023-07-31T00:57:56;13.93;;;4.45;;
58214;SDS011;44011;52.218;1.480;2023-07-31T01:00:22;12.38;;;4.90;;
58214;SDS011;44011;52.218;1.480;2023-07-31T01:02:47;10.45;;;4.30;;
58214;SDS011;44011;52.218;1.480;2023-07-31T01:05:13;17.83;;;5.30;;
58214;SDS011;44011;52.218;1.480;2023-07-31T01:10:11;15.07;;;4.97;;
58214;SDS011;44011;52.218;1.480;2023-07-31T01:12:39;15.05;;;5.50;;
58214;SDS011;44011;52.218;1.480;2023-07-31T01:15:05;16.20;;;5.40;;
58214;SDS011;44011;52.218;1.480;2023-07-31T01:17:31;16.23;;;5.78;;
58214;SDS011;44011;52.218;1.480;2023-07-31T01:19:57;12.13;;;5.72;;
58214;SDS011;44011;52.218;1.480;2023-07-31T01:22:36;17.00;;;5.75;;
58214;SDS011;44011;52.218;1.480;2023-07-31T01:25:15;15.52;;;5.40;;
58214;SDS011;44011;52.218;1.480;2023-07-31T01:27:50;16.85;;;6.15;;
58214;SDS011;44011;52.218;1.480;2023-07-31T01:30:19;15.85;;;5.50;;
58214;SDS011;44011;52.218;1.480;2023-07-31T01:32:46;16.60;;;6.68;;
58214;SDS011;44011;52.218;1.480;2023-07-31T01:35:12;11.32;;;5.53;;
58214;SDS011;44011;52.218;1.480;2023-07-31T01:37:37;18.17;;;6.40;;
58214;SDS011;44011;52.218;1.480;2023-07-31T01:40:03;16.50;;;6.60;;
58214;SDS011;44011;52.218;1.480;2023-07-31T01:42:29;13.93;;;6.07;;
58214;SDS011;44011;52.218;1.480;2023-07-31T01:44:54;19.33;;;7.18;;
58214;SDS011;44011;52.218;1.480;2023-07-31T01:47:19;17.55;;;7.30;;
58214;SDS011;44011;52.218;1.480;2023-07-31T01:49:45;16.20;;;6.13;;
58214;SDS011;44011;52.218;1.480;2023-07-31T01:52:10;13.10;;;6.00;;
58214;SDS011;44011;52.218;1.480;2023-07-31T01:54:35;17.50;;;6.70;;
58214;SDS011;44011;52.218;1.480;2023-07-31T01:57:01;16.50;;;6.20;;
58214;SDS011;44011;52.218;1.480;2023-07-31T01:59:27;22.85;;;6.70;;
58214;SDS011;44011;52.218;1.480;2023-07-31T02:01:53;15.95;;;6.07;;
58214;SDS011;44011;52.218;1.480;2023-07-31T02:04:18;12.73;;;6.13;;
58214;SDS011;44011;52.218;1.480;2023-07-31T02:06:43;18.23;;;7.18;;
58214;SDS011;44011;52.218;1.480;2023-07-31T02:09:09;11.38;;;5.50;;
58214;SDS011;44011;52.218;1.480;2023-07-31T02:11:34;19.63;;;6.33;;
58214;SDS011;44011;52.218;1.480;2023-07-31T02:13:59;15.13;;;6.20;;
58214;SDS011;44011;52.218;1.480;2023-07-31T02:16:24;14.57;;;5.82;;
58214;SDS011;44011;52.218;1.480;2023-07-31T02:18:49;14.13;;;5.47;;
58214;SDS011;44011;52.218;1.480;2023-07-31T02:21:14;17.70;;;6.47;;
58214;SDS011;44011;52.218;1.480;2023-07-31T02:23:40;14.47;;;5.53;;
58214;SDS011;44011;52.218;1.480;2023-07-31T02:26:05;14.85;;;5.72;;
58214;SDS011;44011;52.218;1.480;2023-07-31T02:28:30;17.05;;;6.07;;
58214;SDS011;44011;52.218;1.480;2023-07-31T02:30:55;16.57;;;5.90;;
58214;SDS011;44011;52.218;1.480;2023-07-31T02:33:21;14.43;;;4.77;;
58214;SDS011;44011;52.218;1.480;2023-07-31T02:35:46;14.73;;;6.03;;
58214;SDS011;44011;52.218;1.480;2023-07-31T02:38:11;12.40;;;5.00;;
58214;SDS011;44011;52.218;1.480;2023-07-31T02:40:36;12.17;;;5.10;;
58214;SDS011;44011;52.218;1.480;2023-07-31T02:43:01;9.87;;;3.83;;
58214;SDS011;44011;52.218;1.480;2023-07-31T02:45:27;12.60;;;4.43;;
58214;SDS011;44011;52.218;1.480;2023-07-31T02:47:52;10.25;;;3.92;;
58214;SDS011;44011;52.218;1.480;2023-07-31T02:50:17;14.43;;;4.73;;
58214;SDS011;44011;52.218;1.480;2023-07-31T02:52:42;8.87;;;4.20;;
58214;SDS011;44011;52.218;1.480;2023-07-31T02:55:07;8.90;;;4.13;;
58214;SDS011;44011;52.218;1.480;2023-07-31T02:57:33;16.42;;;4.45;;
58214;SDS011;44011;52.218;1.480;2023-07-31T02:59:58;7.00;;;3.60;;
58214;SDS011;44011;52.218;1.480;2023-07-31T03:02:23;10.53;;;3.57;;
58214;SDS011;44011;52.218;1.480;2023-07-31T03:04:48;6.20;;;3.53;;
58214;SDS011;44011;52.218;1.480;2023-07-31T03:07:13;10.93;;;4.28;;
58214;SDS011;44011;52.218;1.480;2023-07-31T03:09:39;6.53;;;3.67;;
58214;SDS011;44011;52.218;1.480;2023-07-31T03:12:04;7.17;;;3.20;;
58214;SDS011;44011;52.218;1.480;2023-07-31T03:14:29;9.48;;;3.58;;
58214;SDS011;44011;52.218;1.480;2023-07-31T03:16:54;7.13;;;3.60;;
58214;SDS011;44011;52.218;1.480;2023-07-31T03:19:19;9.23;;;3.22;;
58214;SDS011;44011;52.218;1.480;2023-07-31T03:21:45;8.85;;;3.55;;
58214;SDS011;44011;52.218;1.480;2023-07-31T03:24:10;7.70;;;3.13;;
58214;SDS011;44011;52.218;1.480;2023-07-31T03:26:37;8.70;;;3.55;;
58214;SDS011;44011;52.218;1.480;2023-07-31T03:29:02;7.50;;;3.20;;
58214;SDS011;44011;52.218;1.480;2023-07-31T03:31:27;7.10;;;4.38;;
58214;SDS011;44011;52.218;1.480;2023-07-31T03:33:52;8.60;;;2.93;;
58214;SDS011;44011;52.218;1.480;2023-07-31T03:36:18;8.07;;;3.60;;
58214;SDS011;44011;52.218;1.480;2023-07-31T03:38:43;6.03;;;2.97;;
58214;SDS011;44011;52.218;1.480;2023-07-31T03:41:08;8.13;;;3.00;;
58214;SDS011;44011;52.218;1.480;2023-07-31T03:43:33;5.87;;;2.93;;
58214;SDS011;44011;52.218;1.480;2023-07-31T03:45:59;6.10;;;2.50;;
58214;SDS011;44011;52.218;1.480;2023-07-31T03:48:24;5.68;;;2.67;;
58214;SDS011;44011;52.218;1.480;2023-07-31T03:50:49;4.43;;;2.63;;
58214;SDS011;44011;52.218;1.480;2023-07-31T03:53:15;5.97;;;3.43;;
58214;SDS011;44011;52.218;1.480;2023-07-31T03:55:40;9.77;;;3.70;;
58214;SDS011;44011;52.218;1.480;2023-07-31T03:58:05;6.50;;;2.60;;
58214;SDS011;44011;52.218;1.480;2023-07-31T04:00:30;4.53;;;2.20;;
58214;SDS011;44011;52.218;1.480;2023-07-31T04:02:55;9.10;;;3.03;;
58214;SDS011;44011;52.218;1.480;2023-07-31T04:05:21;6.07;;;2.00;;
58214;SDS011;44011;52.218;1.480;2023-07-31T04:07:46;3.23;;;2.20;;
58214;SDS011;44011;52.218;1.480;2023-07-31T04:10:11;3.67;;;2.03;;
58214;SDS011;44011;52.218;1.480;2023-07-31T04:12:36;4.50;;;2.00;;
58214;SDS011;44011;52.218;1.480;2023-07-31T04:15:01;3.13;;;2.27;;
58214;SDS011;44011;52.218;1.480;2023-07-31T04:17:27;3.45;;;1.95;;
58214;SDS011;44011;52.218;1.480;2023-07-31T04:19:52;6.80;;;2.03;;
58214;SDS011;44011;52.218;1.480;2023-07-31T04:22:17;2.67;;;1.90;;
58214;SDS011;44011;52.218;1.480;2023-07-31T04:24:42;4.23;;;2.00;;
58214;SDS011;44011;52.218;1.480;2023-07-31T04:27:07;3.45;;;1.60;;
58214;SDS011;44011;52.218;1.480;2023-07-31T04:29:32;3.57;;;1.80;;
58214;SDS011;44011;52.218;1.480;2023-07-31T04:31:58;3.47;;;1.70;;
58214;SDS011;44011;52.218;1.480;2023-07-31T04:34:23;2.40;;;1.73;;
58214;SDS011;44011;52.218;1.480;2023-07-31T04:36:48;5.80;;;1.87;;
58214;SDS011;44011;52.218;1.480;2023-07-31T04:39:13;3.33;;;1.77;;
58214;SDS011;44011;52.218;1.480;2023-07-31T04:41:38;3.10;;;1.50;;
58214;SDS011;44011;52.218;1.480;2023-07-31T04:44:04;2.38;;;1.60;;
58214;SDS011;44011;52.218;1.480;2023-07-31T04:46:29;2.60;;;1.48;;
58214;SDS011;44011;52.218;1.480;2023-07-31T04:48:54;2.42;;;1.50;;
58214;SDS011;44011;52.218;1.480;2023-07-31T04:51:19;2.27;;;1.53;;
58214;SDS011;44011;52.218;1.480;2023-07-31T04:53:46;5.20;;;1.55;;
58214;SDS011;44011;52.218;1.480;2023-07-31T04:56:11;3.53;;;1.70;;
58214;SDS011;44011;52.218;1.480;2023-07-31T04:58:36;6.00;;;1.25;;
58214;SDS011;44011;52.218;1.480;2023-07-31T05:01:01;2.73;;;1.50;;
58214;SDS011;44011;52.218;1.480;2023-07-31T05:03:26;2.87;;;2.57;;
58214;SDS011;44011;52.218;1.480;2023-07-31T05:05:52;3.60;;;1.57;;
58214;SDS011;44011;52.218;1.480;2023-07-31T05:08:17;3.13;;;1.83;;
58214;SDS011;44011;52.218;1.480;2023-07-31T05:10:45;3.25;;;1.58;;
58214;SDS011;44011;52.218;1.480;2023-07-31T05:13:10;2.97;;;1.90;;
58214;SDS011;44011;52.218;1.480;2023-07-31T05:15:35;3.22;;;1.40;;
58214;SDS011;44011;52.218;1.480;2023-07-31T05:18:01;3.50;;;1.60;;
58214;SDS011;44011;52.218;1.480;2023-07-31T05:20:26;2.13;;;1.52;;
58214;SDS011;44011;52.218;1.480;2023-07-31T05:22:52;5.00;;;1.88;;
58214;SDS011;44011;52.218;1.480;2023-07-31T05:25:17;2.97;;;1.70;;
58214;SDS011;44011;52.218;1.480;2023-07-31T05:27:43;3.23;;;1.53;;
58214;SDS011;44011;52.218;1.480;2023-07-31T05:30:08;4.40;;;1.60;;
58214;SDS011;44011;52.218;1.480;2023-07-31T05:32:33;3.92;;;1.70;;
58214;SDS011;44011;52.218;1.480;2023-07-31T05:34:58;5.00;;;1.80;;
58214;SDS011;44011;52.218;1.480;2023-07-31T05:37:24;7.17;;;1.93;;
58214;SDS011;44011;52.218;1.480;2023-07-31T05:39:49;3.78;;;1.90;;
58214;SDS011;44011;52.218;1.480;2023-07-31T05:42:14;5.18;;;1.73;;
58214;SDS011;44011;52.218;1.480;2023-07-31T05:44:39;3.65;;;1.77;;
58214;SDS011;44011;52.218;1.480;2023-07-31T05:47:05;5.93;;;1.98;;
58214;SDS011;44011;52.218;1.480;2023-07-31T05:49:30;1.85;;;1.63;;
58214;SDS011;44011;52.218;1.480;2023-07-31T05:51:55;3.37;;;1.93;;
58214;SDS011;44011;52.218;1.480;2023-07-31T05:54:20;5.40;;;2.03;;
58214;SDS011;44011;52.218;1.480;2023-07-31T05:56:45;4.10;;;1.83;;
58214;SDS011;44011;52.218;1.480;2023-07-31T05:59:11;5.80;;;1.70;;
58214;SDS011;44011;52.218;1.480;2023-07-31T06:01:37;2.63;;;1.73;;
58214;SDS011;44011;52.218;1.480;2023-07-31T06:04:02;2.35;;;1.55;;
58214;SDS011;44011;52.218;1.480;2023-07-31T06:06:28;3.28;;;1.98;;
58214;SDS011;44011;52.218;1.480;2023-07-31T06:08:53;4.65;;;1.98;;
58214;SDS011;44011;52.218;1.480;2023-07-31T06:11:20;3.17;;;1.73;;
58214;SDS011;44011;52.218;1.480;2023-07-31T06:13:45;3.80;;;1.88;;
58214;SDS011;44011;52.218;1.480;2023-07-31T06:16:11;3.83;;;1.55;;
58214;SDS011;44011;52.218;1.480;2023-07-31T06:18:37;3.25;;;1.67;;
58214;SDS011;44011;52.218;1.480;2023-07-31T06:21:02;3.47;;;1.67;;
58214;SDS011;44011;52.218;1.480;2023-07-31T06:23:27;3.60;;;1.67;;
58214;SDS011;44011;52.218;1.480;2023-07-31T06:25:52;3.88;;;1.88;;
58214;SDS011;44011;52.218;1.480;2023-07-31T06:28:18;3.00;;;1.60;;
58214;SDS011;44011;52.218;1.480;2023-07-31T06:30:43;5.43;;;1.83;;
58214;SDS011;44011;52.218;1.480;2023-07-31T06:33:08;3.83;;;1.42;;
58214;SDS011;44011;52.218;1.480;2023-07-31T06:35:34;4.22;;;1.67;;
58214;SDS011;44011;52.218;1.480;2023-07-31T06:37:59;2.93;;;1.40;;
58214;SDS011;44011;52.218;1.480;2023-07-31T06:40:24;4.67;;;1.67;;
58214;SDS011;44011;52.218;1.480;2023-07-31T06:42:49;3.88;;;1.35;;
58214;SDS011;44011;52.218;1.480;2023-07-31T06:45:15;4.10;;;1.73;;
58214;SDS011;44011;52.218;1.480;2023-07-31T06:47:40;3.95;;;1.65;;
58214;SDS011;44011;52.218;1.480;2023-07-31T06:50:05;2.22;;;1.70;;
58214;SDS011;44011;52.218;1.480;2023-07-31T06:52:30;1.83;;;1.23;;
58214;SDS011;44011;52.218;1.480;2023-07-31T06:57:39;2.30;;;1.40;;
58214;SDS011;44011;52.218;1.480;2023-07-31T07:00:05;3.47;;;1.20;;
58214;SDS011;44011;52.218;1.480;2023-07-31T07:02:30;3.75;;;1.48;;
58214;SDS011;44011;52.218;1.480;2023-07-31T07:04:55;3.45;;;1.10;;
58214;SDS011;44011;52.218;1.480;2023-07-31T07:07:21;2.53;;;1.27;;
58214;SDS011;44011;52.218;1.480;2023-07-31T07:09:46;3.00;;;1.00;;
58214;SDS011;44011;52.218;1.480;2023-07-31T07:12:11;1.10;;;0.90;;
58214;SDS011;44011;52.218;1.480;2023-07-31T07:14:36;1.88;;;1.17;;
58214;SDS011;44011;52.218;1.480;2023-07-31T07:17:02;3.33;;;0.90;;
58214;SDS011;44011;52.218;1.480;2023-07-31T07:19:27;1.98;;;0.85;;
58214;SDS011;44011;52.218;1.480;2023-07-31T07:21:52;1.77;;;0.93;;
58214;SDS011;44011;52.218;1.480;2023-07-31T07:24:17;1.20;;;0.90;;
58214;SDS011;44011;52.218;1.480;2023-07-31T07:26:42;0.90;;;0.70;;
58214;SDS011;44011;52.218;1.480;2023-07-31T07:29:08;1.37;;;0.70;;
58214;SDS011;44011;52.218;1.480;2023-07-31T07:31:33;1.37;;;1.00;;
58214;SDS011;44011;52.218;1.480;2023-07-31T07:33:58;2.83;;;0.80;;
58214;SDS011;44011;52.218;1.480;2023-07-31T07:36:23;2.90;;;1.03;;
58214;SDS011;44011;52.218;1.480;2023-07-31T07:38:48;1.40;;;0.87;;
58214;SDS011;44011;52.218;1.480;2023-07-31T07:41:13;2.10;;;1.27;;
58214;SDS011;44011;52.218;1.480;2023-07-31T07:43:40;3.13;;;1.30;;
58214;SDS011;44011;52.218;1.480;2023-07-31T07:46:05;3.13;;;1.10;;
58214;SDS011;44011;52.218;1.480;2023-07-31T07:48:30;1.33;;;1.03;;
58214;SDS011;44011;52.218;1.480;2023-07-31T07:50:55;2.37;;;1.20;;
58214;SDS011;44011;52.218;1.480;2023-07-31T07:53:20;3.50;;;1.20;;
58214;SDS011;44011;52.218;1.480;2023-07-31T07:55:46;1.35;;;0.90;;
58214;SDS011;44011;52.218;1.480;2023-07-31T07:58:11;2.13;;;1.10;;
58214;SDS011;44011;52.218;1.480;2023-07-31T08:00:36;1.90;;;1.00;;
58214;SDS011;44011;52.218;1.480;2023-07-31T08:03:02;2.10;;;1.07;;
58214;SDS011;44011;52.218;1.480;2023-07-31T08:05:27;3.67;;;1.05;;
58214;SDS011;44011;52.218;1.480;2023-07-31T08:07:52;3.15;;;1.23;;
58214;SDS011;44011;52.218;1.480;2023-07-31T08:10:17;1.23;;;1.07;;
58214;SDS011;44011;52.218;1.480;2023-07-31T08:12:43;2.33;;;1.20;;
58214;SDS011;44011;52.218;1.480;2023-07-31T08:15:08;3.00;;;1.60;;
58214;SDS011;44011;52.218;1.480;2023-07-31T08:17:33;3.33;;;1.52;;
58214;SDS011;44011;52.218;1.480;2023-07-31T08:19:58;2.17;;;1.20;;
58214;SDS011;44011;52.218;1.480;2023-07-31T08:22:24;2.75;;;1.30;;
58214;SDS011;44011;52.218;1.480;2023-07-31T08:24:50;3.55;;;1.80;;
58214;SDS011;44011;52.218;1.480;2023-07-31T08:27:15;2.20;;;1.70;;
58214;SDS011;44011;52.218;1.480;2023-07-31T08:29:40;1.97;;;1.20;;
58214;SDS011;44011;52.218;1.480;2023-07-31T08:32:05;2.10;;;1.50;;
58214;SDS011;44011;52.218;1.480;2023-07-31T08:34:31;2.08;;;1.45;;
58214;SDS011;44011;52.218;1.480;2023-07-31T08:36:56;2.33;;;1.50;;
58214;SDS011;44011;52.218;1.480;2023-07-31T08:39:21;2.00;;;1.50;;
58214;SDS011;44011;52.218;1.480;2023-07-31T08:41:47;2.27;;;1.43;;
58214;SDS011;44011;52.218;1.480;2023-07-31T08:44:12;1.25;;;1.10;;
58214;SDS011;44011;52.218;1.480;2023-07-31T08:46:38;2.88;;;1.35;;
58214;SDS011;44011;52.218;1.480;2023-07-31T08:49:04;2.53;;;1.20;;
58214;SDS011;44011;52.218;1.480;2023-07-31T08:51:31;2.10;;;1.40;;
58214;SDS011;44011;52.218;1.480;2023-07-31T08:53:56;1.65;;;1.00;;
58214;SDS011;44011;52.218;1.480;2023-07-31T08:56:22;2.00;;;1.10;;
58214;SDS011;44011;52.218;1.480;2023-07-31T08:58:48;1.63;;;0.93;;
58214;SDS011;44011;52.218;1.480;2023-07-31T09:01:14;4.85;;;1.15;;
58214;SDS011;44011;52.218;1.480;2023-07-31T09:03:39;1.00;;;0.90;;
58214;SDS011;44011;52.218;1.480;2023-07-31T09:06:05;3.15;;;1.30;;
58214;SDS011;44011;52.218;1.480;2023-07-31T09:08:31;2.17;;;0.90;;
58214;SDS011;44011;52.218;1.480;2023-07-31T09:11:00;2.47;;;1.05;;
58214;SDS011;44011;52.218;1.480;2023-07-31T09:13:29;2.05;;;1.23;;
58214;SDS011;44011;52.218;1.480;2023-07-31T09:15:54;1.88;;;1.27;;
58214;SDS011;44011;52.218;1.480;2023-07-31T09:18:19;2.20;;;1.00;;
58214;SDS011;44011;52.218;1.480;2023-07-31T09:20:59;1.20;;;1.08;;
58214;SDS011;44011;52.218;1.480;2023-07-31T09:23:25;1.50;;;1.20;;
58214;SDS011;44011;52.218;1.480;2023-07-31T09:25:50;2.67;;;1.40;;
58214;SDS011;44011;52.218;1.480;2023-07-31T09:28:15;2.37;;;1.20;;
58214;SDS011;44011;52.218;1.480;2023-07-31T09:30:50;2.78;;;1.10;;
58214;SDS011;44011;52.218;1.480;2023-07-31T09:33:16;1.90;;;1.10;;
58214;SDS011;44011;52.218;1.480;2023-07-31T09:35:41;1.45;;;1.00;;
58214;SDS011;44011;52.218;1.480;2023-07-31T09:38:08;1.17;;;1.00;;
58214;SDS011;44011;52.218;1.480;2023-07-31T09:40:35;3.58;;;1.13;;
58214;SDS011;44011;52.218;1.480;2023-07-31T09:43:01;2.15;;;1.05;;
58214;SDS011;44011;52.218;1.480;2023-07-31T09:45:27;1.27;;;0.90;;
58214;SDS011;44011;52.218;1.480;2023-07-31T09:47:52;3.78;;;0.90;;
58214;SDS011;44011;52.218;1.480;2023-07-31T09:50:19;2.88;;;1.45;;
58214;SDS011;44011;52.218;1.480;2023-07-31T09:52:45;2.78;;;1.00;;
58214;SDS011;44011;52.218;1.480;2023-07-31T09:55:10;2.75;;;0.93;;
58214;SDS011;44011;52.218;1.480;2023-07-31T09:57:39;2.40;;;1.23;;
58214;SDS011;44011;52.218;1.480;2023-07-31T10:00:05;1.45;;;1.10;;
58214;SDS011;44011;52.218;1.480;2023-07-31T10:02:31;2.25;;;1.20;;
58214;SDS011;44011;52.218;1.480;2023-07-31T10:04:57;2.17;;;1.00;;
58214;SDS011;44011;52.218;1.480;2023-07-31T10:07:23;3.38;;;1.10;;
58214;SDS011;44011;52.218;1.480;2023-07-31T10:09:50;2.50;;;1.17;;
58214;SDS011;44011;52.218;1.480;2023-07-31T10:12:16;1.38;;;0.90;;
58214;SDS011;44011;52.218;1.480;2023-07-31T10:14:43;1.27;;;1.00;;
58214;SDS011;44011;52.218;1.480;2023-07-31T10:17:08;4.65;;;1.17;;
58214;SDS011;44011;52.218;1.480;2023-07-31T10:19:34;1.67;;;0.85;;
58214;SDS011;44011;52.218;1.480;2023-07-31T10:22:00;2.65;;;1.02;;
58214;SDS011;44011;52.218;1.480;2023-07-31T10:24:27;1.10;;;0.98;;
58214;SDS011;44011;52.218;1.480;2023-07-31T10:26:53;5.45;;;1.25;;
58214;SDS011;44011;52.218;1.480;2023-07-31T10:29:18;0.75;;;0.65;;
58214;SDS011;44011;52.218;1.480;2023-07-31T10:31:44;2.45;;;1.10;;
58214;SDS011;44011;52.218;1.480;2023-07-31T10:34:10;1.92;;;1.10;;
58214;SDS011;44011;52.218;1.480;2023-07-31T10:36:35;3.63;;;2.80;;
58214;SDS011;44011;52.218;1.480;2023-07-31T10:39:00;1.58;;;0.80;;
58214;SDS011;44011;52.218;1.480;2023-07-31T10:41:29;1.67;;;1.10;;
58214;SDS011;44011;52.218;1.480;2023-07-31T10:44:01;1.45;;;1.08;;
58214;SDS011;44011;52.218;1.480;2023-07-31T10:46:30;0.95;;;0.70;;
58214;SDS011;44011;52.218;1.480;2023-07-31T10:48:59;3.00;;;1.10;;
58214;SDS011;44011;52.218;1.480;2023-07-31T10:51:26;4.10;;;2.00;;
58214;SDS011;44011;52.218;1.480;2023-07-31T10:54:10;2.65;;;1.65;;
58214;SDS011;44011;52.218;1.480;2023-07-31T10:56:38;1.00;;;0.90;;
58214;SDS011;44011;52.218;1.480;2023-07-31T10:59:04;2.33;;;1.30;;
58214;SDS011;44011;52.218;1.480;2023-07-31T11:04:14;1.33;;;1.00;;
58214;SDS011;44011;52.218;1.480;2023-07-31T11:06:39;1.30;;;1.00;;
58214;SDS011;44011;52.218;1.480;2023-07-31T11:09:04;1.30;;;1.20;;
58214;SDS011;44011;52.218;1.480;2023-07-31T11:11:31;1.70;;;0.98;;
58214;SDS011;44011;52.218;1.480;2023-07-31T11:13:56;2.23;;;1.20;;
58214;SDS011;44011;52.218;1.480;2023-07-31T11:16:22;1.15;;;0.95;;
58214;SDS011;44011;52.218;1.480;2023-07-31T11:18:48;2.72;;;1.00;;
58214;SDS011;44011;52.218;1.480;2023-07-31T11:23:39;1.42;;;1.23;;
58214;SDS011;44011;52.218;1.480;2023-07-31T11:26:04;5.00;;;1.83;;
58214;SDS011;44011;52.218;1.480;2023-07-31T11:28:34;1.88;;;1.17;;
58214;SDS011;44011;52.218;1.480;2023-07-31T11:30:59;1.95;;;1.00;;
58214;SDS011;44011;52.218;1.480;2023-07-31T11:33:25;2.13;;;1.25;;
58214;SDS011;44011;52.218;1.480;2023-07-31T11:35:50;3.28;;;1.00;;
58214;SDS011;44011;52.218;1.480;2023-07-31T11:38:26;3.30;;;1.20;;
58214;SDS011;44011;52.218;1.480;2023-07-31T11:40:55;2.90;;;1.00;;
58214;SDS011;44011;52.218;1.480;2023-07-31T11:43:20;2.47;;;0.93;;
58214;SDS011;44011;52.218;1.480;2023-07-31T11:45:50;1.98;;;1.35;;
58214;SDS011;44011;52.218;1.480;2023-07-31T11:48:24;1.25;;;1.00;;
58214;SDS011;44011;52.218;1.480;2023-07-31T11:50:53;3.60;;;1.35;;
58214;SDS011;44011;52.218;1.480;2023-07-31T11:53:25;3.10;;;1.15;;
58214;SDS011;44011;52.218;1.480;2023-07-31T11:55:51;2.95;;;0.85;;
58214;SDS011;44011;52.218;1.480;2023-07-31T11:58:17;1.90;;;1.05;;
58214;SDS011;44011;52.218;1.480;2023-07-31T12:00:43;1.90;;;1.27;;
58214;SDS011;44011;52.218;1.480;2023-07-31T12:03:08;2.58;;;1.30;;
58214;SDS011;44011;52.218;1.480;2023-07-31T12:05:33;1.40;;;1.13;;
58214;SDS011;44011;52.218;1.480;2023-07-31T12:07:58;2.63;;;1.10;;
58214;SDS011;44011;52.218;1.480;2023-07-31T12:13:11;3.35;;;1.20;;
58214;SDS011;44011;52.218;1.480;2023-07-31T12:15:41;2.15;;;1.15;;
58214;SDS011;44011;52.218;1.480;2023-07-31T12:18:11;3.72;;;1.40;;
58214;SDS011;44011;52.218;1.480;2023-07-31T12:20:43;3.17;;;1.30;;
58214;SDS011;44011;52.218;1.480;2023-07-31T12:25:40;1.20;;;1.10;;
58214;SDS011;44011;52.218;1.480;2023-07-31T12:28:05;2.55;;;1.15;;
58214;SDS011;44011;52.218;1.480;2023-07-31T12:30:33;2.38;;;1.30;;
58214;SDS011;44011;52.218;1.480;2023-07-31T12:33:02;2.00;;;1.15;;
58214;SDS011;44011;52.218;1.480;2023-07-31T12:35:34;1.83;;;1.33;;
58214;SDS011;44011;52.218;1.480;2023-07-31T12:38:01;1.92;;;1.05;;
58214;SDS011;44011;52.218;1.480;2023-07-31T12:40:26;2.00;;;1.13;;
58214;SDS011;44011;52.218;1.480;2023-07-31T12:42:51;3.07;;;1.17;;
58214;SDS011;44011;52.218;1.480;2023-07-31T12:45:17;1.23;;;0.98;;
58214;SDS011;44011;52.218;1.480;2023-07-31T12:47:42;2.60;;;1.20;;
58214;SDS011;44011;52.218;1.480;2023-07-31T12:50:07;3.40;;;1.40;;
58214;SDS011;44011;52.218;1.480;2023-07-31T12:52:32;1.88;;;1.17;;
58214;SDS011;44011;52.218;1.480;2023-07-31T12:54:58;3.78;;;1.50;;
58214;SDS011;44011;52.218;1.480;2023-07-31T12:57:23;3.60;;;1.37;;
58214;SDS011;44011;52.218;1.480;2023-07-31T12:59:49;4.15;;;1.63;;
58214;SDS011;44011;52.218;1.480;2023-07-31T13:02:14;2.13;;;1.20;;
58214;SDS011;44011;52.218;1.480;2023-07-31T13:04:39;3.85;;;1.65;;
58214;SDS011;44011;52.218;1.480;2023-07-31T13:07:04;2.70;;;1.30;;
58214;SDS011;44011;52.218;1.480;2023-07-31T13:09:29;1.60;;;1.08;;
58214;SDS011;44011;52.218;1.480;2023-07-31T13:11:55;4.28;;;1.55;;
58214;SDS011;44011;52.218;1.480;2023-07-31T13:14:20;1.93;;;1.13;;
58214;SDS011;44011;52.218;1.480;2023-07-31T13:16:45;2.43;;;1.37;;
58214;SDS011;44011;52.218;1.480;2023-07-31T13:19:10;2.80;;;0.93;;
58214;SDS011;44011;52.218;1.480;2023-07-31T13:21:36;1.77;;;0.80;;
58214;SDS011;44011;52.218;1.480;2023-07-31T13:24:02;1.65;;;1.17;;
58214;SDS011;44011;52.218;1.480;2023-07-31T13:26:27;0.85;;;0.60;;
58214;SDS011;44011;52.218;1.480;2023-07-31T13:28:52;1.33;;;1.10;;
58214;SDS011;44011;52.218;1.480;2023-07-31T13:31:17;2.20;;;1.03;;
58214;SDS011;44011;52.218;1.480;2023-07-31T13:33:43;1.80;;;1.03;;
58214;SDS011;44011;52.218;1.480;2023-07-31T13:36:08;1.33;;;1.13;;
58214;SDS011;44011;52.218;1.480;2023-07-31T13:38:33;2.22;;;0.88;;
58214;SDS011;44011;52.218;1.480;2023-07-31T13:40:58;1.67;;;0.97;;
58214;SDS011;44011;52.218;1.480;2023-07-31T13:43:24;3.00;;;1.10;;
58214;SDS011;44011;52.218;1.480;2023-07-31T13:45:49;1.87;;;1.10;;
58214;SDS011;44011;52.218;1.480;2023-07-31T13:48:14;1.40;;;1.00;;
58214;SDS011;44011;52.218;1.480;2023-07-31T13:50:39;1.20;;;1.00;;
58214;SDS011;44011;52.218;1.480;2023-07-31T13:53:04;1.73;;;0.87;;
58214;SDS011;44011;52.218;1.480;2023-07-31T13:55:30;1.70;;;0.93;;
58214;SDS011;44011;52.218;1.480;2023-07-31T13:57:55;2.17;;;1.13;;
58214;SDS011;44011;52.218;1.480;2023-07-31T14:00:20;1.88;;;1.10;;
58214;SDS011;44011;52.218;1.480;2023-07-31T14:02:45;2.05;;;1.30;;
58214;SDS011;44011;52.218;1.480;2023-07-31T14:05:11;2.13;;;1.27;;
58214;SDS011;44011;52.218;1.480;2023-07-31T14:07:36;1.77;;;1.10;;
58214;SDS011;44011;52.218;1.480;2023-07-31T14:10:01;2.00;;;1.38;;
58214;SDS011;44011;52.218;1.480;2023-07-31T14:12:28;1.98;;;1.45;;
58214;SDS011;44011;52.218;1.480;2023-07-31T14:14:53;2.97;;;1.60;;
58214;SDS011;44011;52.218;1.480;2023-07-31T14:17:19;2.80;;;1.20;;
58214;SDS011;44011;52.218;1.480;2023-07-31T14:19:44;1.60;;;1.30;;
58214;SDS011;44011;52.218;1.480;2023-07-31T14:22:09;1.67;;;1.40;;
58214;SDS011;44011;52.218;1.480;2023-07-31T14:24:34;3.20;;;1.30;;
58214;SDS011;44011;52.218;1.480;2023-07-31T14:27:00;2.28;;;1.70;;
58214;SDS011;44011;52.218;1.480;2023-07-31T14:35:31;4.07;;;2.05;;
58214;SDS011;44011;52.218;1.480;2023-07-31T14:37:56;3.53;;;2.00;;
58214;SDS011;44011;52.218;1.480;2023-07-31T14:40:21;5.85;;;2.10;;
58214;SDS011;44011;52.218;1.480;2023-07-31T14:42:47;6.60;;;2.33;;
58214;SDS011;44011;52.218;1.480;2023-07-31T14:45:12;3.45;;;1.75;;
58214;SDS011;44011;52.218;1.480;2023-07-31T14:47:37;6.60;;;2.00;;
58214;SDS011;44011;52.218;1.480;2023-07-31T14:50:03;3.27;;;1.83;;
58214;SDS011;44011;52.218;1.480;2023-07-31T14:52:28;5.47;;;2.25;;
58214;SDS011;44011;52.218;1.480;2023-07-31T14:54:54;4.20;;;1.90;;
58214;SDS011;44011;52.218;1.480;2023-07-31T14:57:19;4.18;;;1.88;;
58214;SDS011;44011;52.218;1.480;2023-07-31T14:59:45;6.17;;;1.90;;